Airfield :
LOGIN :

Register | Disclaimer

   EN    FR    IT 

 










Legend :    VFR   Marginal VFR   IFR   Intensive IFR   Very Intensive IFR
Visi :
Ceiling :
>= 8 km
>= 3000ft
5 to 8 km
1000 to 3000 ft
1500m to 5 km
500 to 1000 ft
800 to 1500m
200 to 500 ft
< 800m
< 200 ft
Symbols :   Thunderstorms  Fog  Heavy snow  Heavy precipitations  Wind > 20 kt
SIGMETs :     Misc.  Thunderstorms  Icing  Turbulence  Mountain Waves  Volcanic Ashes






- Airport Elevation : 124 ft
- IATA code : NHT


EGWU - RAF Northolt

CURRENT METAR :
  • 200450Z AUTO 22014KT 9999 // FEW018/// BKN046/// 09/07 Q1010

EXPIRED METARs :
  • 200350Z AUTO 22015KT 9999 // BKN041/// 09/07 Q1010
  • 200250Z AUTO 23011KT 9999 // FEW018/// BKN040/// 09/07 Q1011

TAF TAF EGWU
Valid from the 20 at 06:00 until the 21 at 00:00 UTC


200446Z 2006/2024 22014KT 9999 BKN030
BECMG 2006/2009 22018G28KT
TEMPO 2006/2010 6000 -RADZ SCT018
PROB40
TEMPO 2006/2010 SCT010 BKN016
TEMPO 2010/2014 5000 RA BKN010
BECMG 2012/2015 26015KT
PROB30
TEMPO 2012/2014 4000 +RA
PROB30
TEMPO 2014/2018 27022G32KT 6000 SHRA SCT024



MET'MAP, your aeronautical weather chart ! - Copyright ORBIFLY December 2007 - Disclaimer

ORBIFLY MET'MAP TEAM :

Programming & Development : Alexandra Zaïnal
Concept & original design : Baudouin d'Aumeries
Assistance for programming : Marc-Olivier Méhu
Technical & hardware support : Manuel Goepfert

Contact : metmap@orbifly.com




SOURCES & CREDITS :

   NOAA